Time;durP1;ratioP1;P1;durP2;ratioP2;P2;SDS_P1;SDS_P2;PMS_P1;PMS_P2;Temp;Humidity;BMP_temperature;BMP_pressure;BME280_temperature;BME280_humidity;BME280_pressure;Samples;Min_cycle;Max_cycle;Signal;HPM_P1;HPM_P2
2022/01/11 00:01:42;;;;;;;130.00;30.63;;;-0.30;99.90;;;;;;5035626;28;20041;-66
2022/01/11 00:04:12;;;;;;;87.35;29.40;;;-0.30;99.90;;;;;;5036866;28;20067;-66
2022/01/11 00:06:42;;;;;;;;;;;-0.20;99.90;;;;;;5049946;28;20453;-66
2022/01/11 00:09:19;;;;;;;;;;;-0.30;99.90;;;;;;5035320;28;19923;-67
2022/01/11 00:11:46;;;;;;;64.85;23.95;;;-0.40;99.90;;;;;;5028730;28;19924;-67
2022/01/11 00:14:12;;;;;;;73.18;25.70;;;-0.40;99.90;;;;;;5030357;28;20072;-66
2022/01/11 00:16:38;;;;;;;66.53;24.17;;;-0.40;99.90;;;;;;5028806;28;20369;-66
2022/01/11 00:19:06;;;;;;;71.25;25.00;;;-0.30;99.90;;;;;;5045222;28;20053;-67
2022/01/11 00:21:39;;;;;;;77.32;25.42;;;-0.40;99.90;;;;;;5028712;28;20045;-66
2022/01/11 00:26:49;;;;;;;74.80;23.60;;;-0.40;99.90;;;;;;5041786;28;20506;-66
2022/01/11 00:29:15;;;;;;;61.55;24.60;;;-0.50;99.90;;;;;;5039766;28;20068;-66
2022/01/11 00:31:43;;;;;;;64.68;23.52;;;-0.60;99.90;;;;;;5038585;28;20045;-66
2022/01/11 00:34:09;;;;;;;50.50;22.75;;;-0.50;99.90;;;;;;5028160;28;20035;-66
2022/01/11 00:36:42;;;;;;;75.72;23.08;;;-0.50;99.90;;;;;;5027834;28;20133;-67
2022/01/11 00:39:11;;;;;;;66.40;23.98;;;-0.60;99.90;;;;;;5028022;28;20385;-65
2022/01/11 00:41:41;;;;;;;96.38;27.40;;;-0.60;99.90;;;;;;5012032;28;20041;-66
2022/01/11 00:44:08;;;;;;;71.68;24.77;;;-0.60;99.90;;;;;;5026907;28;20065;-66
2022/01/11 00:46:34;;;;;;;58.55;23.02;;;-0.60;99.90;;;;;;5028984;28;20060;-65
2022/01/11 00:49:00;;;;;;;71.70;24.75;;;-0.60;99.90;;;;;;5028453;28;20042;-65
2022/01/11 00:51:26;;;;;;;57.80;23.85;;;-0.60;99.90;;;;;;5045835;28;20041;-66
2022/01/11 00:53:52;;;;;;;97.22;28.33;;;-0.50;99.90;;;;;;5034213;28;20044;-66
2022/01/11 00:56:18;;;;;;;87.75;25.38;;;-0.50;99.90;;;;;;5049769;28;20045;-67
2022/01/11 00:58:43;;;;;;;72.68;26.00;;;-0.60;99.90;;;;;;5037495;28;20383;-66
2022/01/11 01:01:09;;;;;;;70.07;25.98;;;-0.50;99.90;;;;;;5038707;28;20044;-66
2022/01/11 01:03:35;;;;;;;87.43;27.67;;;-0.40;99.90;;;;;;5011631;28;20128;-66
2022/01/11 01:06:01;;;;;;;101.45;27.77;;;-0.40;99.90;;;;;;5027636;28;20052;-66
2022/01/11 01:08:27;;;;;;;74.55;26.65;;;-0.50;99.90;;;;;;5027800;28;20487;-65
2022/01/11 01:10:52;;;;;;;64.88;24.77;;;-0.50;99.90;;;;;;5028894;28;20075;-66
2022/01/11 01:13:22;;;;;;;71.80;25.50;;;-0.40;99.90;;;;;;5030120;28;20551;-66
2022/01/11 01:15:50;;;;;;;61.40;23.65;;;-0.40;99.90;;;;;;5027799;28;20073;-66
2022/01/11 01:18:29;;;;;;;83.45;24.85;;;-0.50;99.90;;;;;;5010728;28;20115;-66
2022/01/11 01:20:55;;;;;;;72.07;24.92;;;-0.40;99.90;;;;;;5035303;28;20079;-66
2022/01/11 01:23:22;;;;;;;95.90;25.35;;;-0.40;99.90;;;;;;5030563;28;20068;-66
2022/01/11 01:25:48;;;;;;;122.65;27.67;;;-0.50;99.90;;;;;;5028255;28;20139;-66
2022/01/11 01:28:14;;;;;;;91.85;27.70;;;-0.50;99.90;;;;;;5028118;28;20120;-66
2022/01/11 01:30:41;;;;;;;89.90;26.00;;;-0.50;99.90;;;;;;5026661;28;20056;-65
2022/01/11 01:33:07;;;;;;;91.97;27.88;;;-0.40;99.90;;;;;;5027636;28;20048;-72
2022/01/11 01:35:39;;;;;;;91.03;27.50;;;-0.40;99.90;;;;;;5027322;28;20452;-65
2022/01/11 01:38:08;;;;;;;93.00;28.73;;;-0.40;99.90;;;;;;5042902;28;20144;-66
2022/01/11 01:40:39;;;;;;;93.75;27.85;;;-0.40;99.90;;;;;;5034964;28;20041;-65
2022/01/11 01:43:08;;;;;;;93.70;28.58;;;-0.40;99.90;;;;;;5018688;28;20486;-65
2022/01/11 01:45:34;;;;;;;178.27;34.05;;;-0.40;99.90;;;;;;5041633;28;20116;-65
2022/01/11 01:48:00;;;;;;;185.57;36.47;;;-0.50;99.90;;;;;;5047828;28;20033;-66
2022/01/11 01:50:26;;;;;;;114.57;28.70;;;-0.40;99.90;;;;;;5025922;28;20034;-65
2022/01/11 01:52:56;;;;;;;123.60;29.67;;;-0.40;99.90;;;;;;5029306;28;20033;-66
2022/01/11 01:55:22;;;;;;;196.52;36.83;;;-0.40;99.90;;;;;;5026999;28;20037;-65
2022/01/11 01:58:03;;;;;;;105.13;32.55;;;-0.40;99.90;;;;;;5035865;28;20041;-66
2022/01/11 02:00:30;;;;;;;118.25;29.02;;;-0.40;99.90;;;;;;5034500;28;20133;-66
2022/01/11 02:03:10;;;;;;;92.90;28.50;;;-0.40;99.90;;;;;;5026727;28;20098;-65
2022/01/11 02:05:36;;;;;;;110.07;30.67;;;-0.30;99.90;;;;;;5040473;28;20489;-66
2022/01/11 02:08:03;;;;;;;123.72;31.58;;;-0.40;99.90;;;;;;5030602;28;20065;-66
2022/01/11 02:10:28;;;;;;;109.82;30.25;;;-0.30;99.90;;;;;;5037580;28;20075;-66
2022/01/11 02:12:55;;;;;;;166.38;33.95;;;-0.30;99.90;;;;;;5040542;28;20477;-65
2022/01/11 02:15:20;;;;;;;141.48;33.72;;;-0.30;99.90;;;;;;5029944;28;20120;-66
2022/01/11 02:17:46;;;;;;;123.55;32.28;;;-0.20;99.90;;;;;;5048958;28;20133;-66
2022/01/11 02:20:13;;;;;;;132.75;33.17;;;-0.30;99.90;;;;;;5019031;28;20038;-66
2022/01/11 02:22:39;;;;;;;112.07;31.83;;;-0.30;99.90;;;;;;5031837;28;20060;-65
2022/01/11 02:25:05;;;;;;;112.82;32.38;;;-0.20;99.90;;;;;;5041096;28;20060;-65
2022/01/11 02:27:30;;;;;;;99.05;30.92;;;-0.20;99.90;;;;;;5029116;28;20045;-66
2022/01/11 02:29:56;;;;;;;101.55;30.25;;;-0.20;99.90;;;;;;5037344;28;20056;-65
2022/01/11 02:32:22;;;;;;;103.40;31.02;;;-0.20;99.90;;;;;;5018263;28;20033;-66
2022/01/11 02:34:47;;;;;;;110.10;30.65;;;-0.20;99.90;;;;;;5031293;28;20045;-66
2022/01/11 02:37:13;;;;;;;101.93;28.05;;;-0.20;99.90;;;;;;5014115;28;20045;-66
2022/01/11 02:39:39;;;;;;;109.32;29.98;;;-0.30;99.90;;;;;;5030744;28;20331;-66
2022/01/11 02:42:05;;;;;;;137.68;32.50;;;-0.20;99.90;;;;;;5049320;28;20041;-67
2022/01/11 02:44:31;;;;;;;126.30;30.10;;;-0.30;99.90;;;;;;5040412;28;20043;-66
2022/01/11 02:46:57;;;;;;;170.52;32.28;;;-0.30;99.90;;;;;;5041583;28;20045;-65
2022/01/11 02:49:23;;;;;;;133.80;30.98;;;-0.30;99.90;;;;;;5030407;28;20397;-66
2022/01/11 02:51:49;;;;;;;118.25;29.13;;;-0.30;99.90;;;;;;5030178;28;20052;-66
2022/01/11 02:54:15;;;;;;;118.50;28.50;;;-0.30;99.90;;;;;;5038110;28;20037;-66
2022/01/11 02:56:40;;;;;;;127.40;28.40;;;-0.30;99.90;;;;;;5030162;28;20040;-65
2022/01/11 02:59:06;;;;;;;100.88;28.92;;;-0.40;99.90;;;;;;5032422;28;20048;-66
2022/01/11 03:01:32;;;;;;;88.88;26.50;;;-0.40;99.90;;;;;;5037209;28;20071;-65
2022/01/11 03:03:58;;;;;;;156.65;33.58;;;-0.40;99.90;;;;;;5029041;28;20045;-65
2022/01/11 03:06:24;;;;;;;93.63;28.90;;;-0.50;99.90;;;;;;5030949;28;20042;-66
2022/01/11 03:08:50;;;;;;;175.90;32.22;;;-0.40;99.90;;;;;;5029861;28;20091;-66
2022/01/11 03:11:17;;;;;;;120.45;29.20;;;-0.50;99.90;;;;;;5015846;28;20033;-67
2022/01/11 03:13:43;;;;;;;142.60;30.55;;;-0.50;99.90;;;;;;5030070;28;20048;-66
2022/01/11 03:16:10;;;;;;;142.15;31.42;;;-0.50;99.90;;;;;;5029740;28;20045;-65
2022/01/11 03:18:36;;;;;;;125.93;28.40;;;-0.50;99.90;;;;;;5037698;28;20161;-65
2022/01/11 03:21:03;;;;;;;110.55;27.85;;;-0.50;99.90;;;;;;5035096;28;20088;-65
2022/01/11 03:23:29;;;;;;;89.30;26.40;;;-0.50;99.90;;;;;;5052011;28;20630;-66
2022/01/11 03:25:55;;;;;;;100.03;27.05;;;-0.50;99.90;;;;;;5030273;28;20052;-65
2022/01/11 03:28:23;;;;;;;106.07;29.92;;;-0.60;99.90;;;;;;5015199;28;20068;-66
2022/01/11 03:30:51;;;;;;;115.78;29.85;;;-0.50;99.90;;;;;;5041810;28;20037;-66
2022/01/11 03:33:17;;;;;;;104.18;28.98;;;-0.50;99.90;;;;;;5029583;28;20424;-65
2022/01/11 03:35:43;;;;;;;75.75;26.58;;;-0.50;99.90;;;;;;5029013;28;20557;-70
2022/01/11 03:38:11;;;;;;;102.15;29.10;;;-0.60;99.90;;;;;;5030108;28;20112;-67
2022/01/11 03:40:38;;;;;;;94.18;27.25;;;-0.50;99.90;;;;;;5040647;28;20045;-66
2022/01/11 03:43:04;;;;;;;100.28;27.60;;;-0.60;99.90;;;;;;5046393;28;20065;-65
2022/01/11 03:45:30;;;;;;;85.72;25.67;;;-0.60;99.90;;;;;;5028571;28;20068;-65
2022/01/11 03:47:58;;;;;;;73.00;25.88;;;-0.60;99.90;;;;;;5041507;28;20091;-65
2022/01/11 03:50:25;;;;;;;81.70;25.85;;;-0.60;99.90;;;;;;5028853;28;20045;-65
2022/01/11 03:58:13;;;;;;;91.40;25.45;;;-0.60;99.90;;;;;;5047209;28;20045;-65
2022/01/11 04:00:39;;;;;;;76.65;25.95;;;-0.60;99.90;;;;;;5027866;28;20354;-65
2022/01/11 04:03:05;;;;;;;90.80;27.02;;;-0.60;99.90;;;;;;5033279;28;20120;-66
2022/01/11 04:05:31;;;;;;;79.85;25.60;;;-0.60;99.90;;;;;;5030032;28;20069;-65
2022/01/11 04:07:57;;;;;;;69.43;24.50;;;-0.60;99.90;;;;;;5032289;28;20029;-67
2022/01/11 04:10:23;;;;;;;72.47;24.88;;;-0.60;99.90;;;;;;5039840;28;20044;-66
2022/01/11 04:12:50;;;;;;;82.15;25.65;;;-0.60;99.90;;;;;;5028409;28;20532;-65
2022/01/11 04:15:16;;;;;;;80.75;24.38;;;-0.70;99.90;;;;;;5028904;28;20072;-65
2022/01/11 04:17:41;;;;;;;69.80;23.80;;;-0.60;99.90;;;;;;5028534;28;20045;-66
2022/01/11 04:20:08;;;;;;;66.97;25.13;;;-0.70;99.90;;;;;;5028671;28;20057;-65
2022/01/11 04:22:33;;;;;;;70.45;26.25;;;-0.60;99.90;;;;;;5028483;28;20045;-66
2022/01/11 04:24:59;;;;;;;69.75;25.40;;;-0.60;99.90;;;;;;5029107;28;20100;-67
2022/01/11 04:27:24;;;;;;;72.72;24.85;;;-0.60;99.90;;;;;;5039111;28;20483;-66
2022/01/11 04:29:50;;;;;;;80.22;25.33;;;-0.60;99.90;;;;;;5047679;28;20044;-65
2022/01/11 04:32:16;;;;;;;79.40;24.35;;;-0.60;99.90;;;;;;5044282;28;20034;-67
2022/01/11 04:34:41;;;;;;;75.15;24.58;;;-0.60;99.90;;;;;;5028251;28;20041;-65
2022/01/11 04:37:07;;;;;;;68.80;25.00;;;-0.60;99.90;;;;;;5045894;28;20045;-66
2022/01/11 04:39:33;;;;;;;69.85;25.25;;;-0.60;99.90;;;;;;5048734;28;20704;-66
2022/01/11 04:41:58;;;;;;;72.40;25.50;;;-0.60;99.90;;;;;;5047109;28;20044;-66
2022/01/11 04:44:24;;;;;;;64.03;23.55;;;-0.60;99.90;;;;;;5026226;28;20045;-65
2022/01/11 04:46:50;;;;;;;66.80;25.27;;;-0.60;99.90;;;;;;5011002;28;20037;-66
2022/01/11 04:49:15;;;;;;;79.85;25.30;;;-0.60;99.90;;;;;;5037076;28;20048;-65
2022/01/11 04:51:43;;;;;;;73.57;26.33;;;-0.50;99.90;;;;;;5036916;28;20055;-65
2022/01/11 04:54:09;;;;;;;79.90;26.63;;;-0.50;99.90;;;;;;5041016;28;20033;-65
2022/01/11 04:56:35;;;;;;;68.45;25.00;;;-0.50;99.90;;;;;;5028456;28;20416;-65
2022/01/11 04:59:01;;;;;;;69.28;25.52;;;-0.60;99.90;;;;;;5027307;28;20687;-65
2022/01/11 05:01:29;;;;;;;73.80;25.95;;;-0.50;99.90;;;;;;5029287;28;20124;-66
2022/01/11 05:03:55;;;;;;;77.05;26.42;;;-0.50;99.90;;;;;;5027627;28;20045;-65
2022/01/11 05:06:20;;;;;;;68.05;24.75;;;-0.60;99.90;;;;;;5027620;28;20119;-66
2022/01/11 05:08:46;;;;;;;67.07;24.00;;;-0.60;99.90;;;;;;5056907;28;20052;-65
2022/01/11 05:11:12;;;;;;;81.75;26.38;;;-0.60;99.90;;;;;;5030306;28;20041;-66
2022/01/11 05:13:37;;;;;;;68.35;24.55;;;-0.60;99.90;;;;;;5047838;28;20424;-66
2022/01/11 05:16:03;;;;;;;95.13;27.05;;;-0.60;99.90;;;;;;5029958;28;20076;-66
2022/01/11 05:18:30;;;;;;;69.97;25.15;;;-0.60;99.90;;;;;;5010294;28;20045;-66
2022/01/11 05:20:55;;;;;;;77.70;24.70;;;-0.60;99.90;;;;;;5028251;28;20041;-66
2022/01/11 05:23:21;;;;;;;122.70;27.30;;;-0.60;99.90;;;;;;5027306;28;20115;-65
2022/01/11 05:25:47;;;;;;;80.75;26.83;;;-0.60;99.90;;;;;;5028562;28;20052;-66
2022/01/11 05:28:13;;;;;;;87.18;28.42;;;-0.60;99.90;;;;;;5027947;28;20049;-66
2022/01/11 05:30:39;;;;;;;94.68;27.30;;;-0.60;99.90;;;;;;5043541;28;20033;-67
2022/01/11 05:33:05;;;;;;;93.78;28.75;;;-0.50;99.90;;;;;;5028586;28;20408;-66
2022/01/11 05:35:31;;;;;;;82.07;26.52;;;-0.60;99.90;;;;;;5028455;28;20037;-65
2022/01/11 05:37:56;;;;;;;85.20;28.65;;;-0.60;99.90;;;;;;5015914;28;20059;-66
2022/01/11 05:40:22;;;;;;;102.35;29.60;;;-0.50;99.90;;;;;;5016357;28;20040;-66
2022/01/11 05:42:49;;;;;;;85.75;26.50;;;-0.60;99.90;;;;;;5032163;28;20481;-66
2022/01/11 05:45:17;;;;;;;93.32;29.92;;;-0.50;99.90;;;;;;5021016;28;20049;-66
2022/01/11 05:47:43;;;;;;;86.53;28.50;;;-0.50;99.90;;;;;;5035099;28;20041;-65
2022/01/11 05:50:11;;;;;;;83.68;28.13;;;-0.50;99.90;;;;;;5043005;28;20037;-66
2022/01/11 05:52:38;;;;;;;95.00;30.92;;;-0.50;99.90;;;;;;5041010;28;20261;-66
2022/01/11 05:55:06;;;;;;;107.50;32.30;;;-0.50;99.90;;;;;;5031378;28;20065;-65
2022/01/11 05:57:32;;;;;;;100.93;32.35;;;-0.40;99.90;;;;;;5033514;28;20037;-66
2022/01/11 05:59:57;;;;;;;94.68;30.35;;;-0.50;99.90;;;;;;5024811;28;20366;-66
2022/01/11 06:02:23;;;;;;;91.45;30.17;;;-0.40;99.90;;;;;;5016396;28;20481;-66
2022/01/11 06:04:49;;;;;;;96.70;30.20;;;-0.50;99.90;;;;;;5021042;28;20377;-66
2022/01/11 06:07:14;;;;;;;89.72;30.52;;;-0.50;99.90;;;;;;5048236;28;20052;-65
2022/01/11 06:09:40;;;;;;;90.25;29.48;;;-0.60;99.90;;;;;;5031981;28;20041;-66
2022/01/11 06:12:06;;;;;;;94.57;31.55;;;-0.50;99.90;;;;;;5030083;28;20033;-66
2022/01/11 06:14:32;;;;;;;103.55;33.08;;;-0.50;99.90;;;;;;5035839;28;20120;-65
2022/01/11 06:16:57;;;;;;;102.50;32.65;;;-0.50;99.90;;;;;;5030316;28;20137;-65
2022/01/11 06:19:23;;;;;;;98.45;33.35;;;-0.50;99.90;;;;;;5038512;28;20060;-66
2022/01/11 06:21:49;;;;;;;98.93;32.80;;;-0.50;99.90;;;;;;5039250;28;20056;-66
2022/01/11 06:24:14;;;;;;;98.80;32.13;;;-0.50;99.90;;;;;;5030626;28;20059;-65
2022/01/11 06:26:41;;;;;;;89.82;30.73;;;-0.50;99.90;;;;;;5019763;28;20409;-66
2022/01/11 06:29:07;;;;;;;97.20;34.25;;;-0.50;99.90;;;;;;5029870;28;20057;-66
2022/01/11 06:31:34;;;;;;;93.80;33.03;;;-0.40;99.90;;;;;;5035736;28;20048;-66
2022/01/11 06:34:00;;;;;;;97.70;32.45;;;-0.40;99.90;;;;;;5038392;28;20037;-66
2022/01/11 06:36:25;;;;;;;104.47;33.13;;;-0.40;99.90;;;;;;5034016;28;20037;-65
2022/01/11 06:38:51;;;;;;;98.38;32.40;;;-0.50;99.90;;;;;;5019094;28;20053;-66
2022/01/11 06:41:17;;;;;;;101.20;32.80;;;-0.50;99.90;;;;;;5031599;28;20050;-66
2022/01/11 06:43:43;;;;;;;103.38;32.05;;;-0.50;99.90;;;;;;5030670;28;20044;-66
2022/01/11 06:46:09;;;;;;;101.95;31.58;;;-0.50;99.90;;;;;;5030386;28;20037;-65
2022/01/11 06:48:34;;;;;;;86.03;29.40;;;-0.50;99.90;;;;;;5012958;28;20087;-65
2022/01/11 06:51:00;;;;;;;83.88;30.20;;;-0.50;99.90;;;;;;5031112;28;20518;-66
2022/01/11 06:53:28;;;;;;;79.53;30.70;;;-0.60;99.90;;;;;;5029170;28;20117;-66
2022/01/11 06:55:54;;;;;;;86.53;30.38;;;-0.60;99.90;;;;;;5041554;28;20033;-66
2022/01/11 06:58:20;;;;;;;82.40;29.08;;;-0.70;99.90;;;;;;5049813;28;20045;-66
2022/01/11 07:00:46;;;;;;;98.45;31.95;;;-0.70;99.90;;;;;;5044073;28;20041;-66
2022/01/11 07:03:12;;;;;;;89.20;30.98;;;-0.80;99.90;;;;;;5032942;28;20116;-65
2022/01/11 07:05:38;;;;;;;99.05;32.05;;;-0.80;99.90;;;;;;5037203;28;20041;-66
2022/01/11 07:08:04;;;;;;;90.97;30.02;;;-0.70;99.90;;;;;;5040930;28;20433;-66
2022/01/11 07:10:30;;;;;;;96.47;30.27;;;-0.80;99.90;;;;;;5029987;28;20033;-66
2022/01/11 07:12:57;;;;;;;84.03;29.52;;;-0.80;99.90;;;;;;5029399;28;20095;-65
2022/01/11 07:15:23;;;;;;;83.72;28.38;;;-0.90;99.90;;;;;;5029848;28;20033;-65
2022/01/11 07:17:48;;;;;;;79.53;27.50;;;-0.90;99.90;;;;;;5036319;28;20649;-66
2022/01/11 07:20:14;;;;;;;78.20;29.13;;;-1.00;99.90;;;;;;5030096;28;20457;-67
2022/01/11 07:22:39;;;;;;;84.20;30.55;;;-0.90;99.90;;;;;;5048194;28;20064;-65
2022/01/11 07:25:06;;;;;;;84.43;30.13;;;-1.00;99.90;;;;;;5028337;28;20037;-66
2022/01/11 07:27:33;;;;;;;81.30;30.17;;;-0.90;99.90;;;;;;5027037;28;20136;-66
2022/01/11 07:30:04;;;;;;;91.70;32.15;;;-0.90;99.90;;;;;;5036260;28;20107;-66
2022/01/11 07:32:31;;;;;;;;;;;-0.90;99.90;;;;;;5046504;28;20429;-66
2022/01/11 07:34:57;;;;;;;87.07;29.83;;;-0.80;99.90;;;;;;5037373;28;19925;-66
2022/01/11 07:37:23;;;;;;;85.53;30.92;;;-0.90;99.90;;;;;;5036814;28;20041;-66
2022/01/11 07:39:49;;;;;;;93.38;30.98;;;-0.80;99.90;;;;;;5043439;28;20872;-65
2022/01/11 07:42:14;;;;;;;89.25;31.05;;;-0.80;99.90;;;;;;5030376;28;20114;-66
2022/01/11 07:44:40;;;;;;;96.70;32.40;;;-0.80;99.90;;;;;;5021937;28;20497;-66
2022/01/11 07:47:06;;;;;;;88.40;31.10;;;-0.80;99.90;;;;;;5042698;28;20037;-65
2022/01/11 07:49:31;;;;;;;91.53;30.00;;;-0.80;99.90;;;;;;5026272;28;20033;-66
2022/01/11 07:51:57;;;;;;;82.88;29.90;;;-0.80;99.90;;;;;;5044705;28;20068;-65
2022/01/11 07:54:23;;;;;;;83.65;33.00;;;-0.70;99.90;;;;;;5032595;28;20505;-66
2022/01/11 07:56:48;;;;;;;82.28;29.25;;;-0.70;99.90;;;;;;5040177;28;20042;-66
2022/01/11 07:59:14;;;;;;;86.55;28.95;;;-0.60;99.90;;;;;;5018236;28;20468;-65
2022/01/11 08:01:40;;;;;;;78.00;30.00;;;-0.60;99.90;;;;;;5035543;28;20052;-65
2022/01/11 08:04:06;;;;;;;80.07;29.67;;;-0.60;99.90;;;;;;5026404;28;20041;-65
2022/01/11 08:06:33;;;;;;;89.07;28.98;;;-0.50;99.90;;;;;;5034236;28;20033;-65
2022/01/11 08:09:00;;;;;;;87.00;30.30;;;-0.40;99.90;;;;;;5044312;28;20065;-65
2022/01/11 08:11:27;;;;;;;71.55;27.65;;;-0.50;99.90;;;;;;5029504;28;20469;-66
2022/01/11 08:13:53;;;;;;;79.85;29.02;;;-0.40;99.90;;;;;;5031795;28;20140;-66
2022/01/11 08:16:19;;;;;;;86.22;31.48;;;-0.40;99.90;;;;;;5028394;28;20452;-65
2022/01/11 08:18:44;;;;;;;80.03;28.08;;;-0.30;99.90;;;;;;5041513;28;20591;-66
2022/01/11 08:21:10;;;;;;;67.80;27.98;;;-0.30;99.90;;;;;;5049871;28;20094;-66
2022/01/11 08:23:35;;;;;;;74.10;28.92;;;-0.30;99.90;;;;;;5044851;28;20042;-66
2022/01/11 08:26:02;;;;;;;70.32;26.50;;;-0.30;99.90;;;;;;5036082;28;20041;-66
2022/01/11 08:28:27;;;;;;;71.57;26.17;;;-0.20;99.90;;;;;;5044581;28;20117;-66
2022/01/11 08:30:53;;;;;;;69.38;25.95;;;-0.20;99.90;;;;;;5038797;28;20029;-66
2022/01/11 08:33:19;;;;;;;68.80;26.02;;;-0.20;99.90;;;;;;5028467;28;20124;-67
2022/01/11 08:35:45;;;;;;;63.60;27.00;;;-0.10;99.90;;;;;;5031326;28;20461;-66
2022/01/11 08:38:11;;;;;;;64.07;26.08;;;0.00;99.90;;;;;;5047582;28;20124;-65
2022/01/11 08:40:36;;;;;;;58.22;24.77;;;0.00;99.90;;;;;;5031634;28;20037;-66
2022/01/11 08:43:04;;;;;;;66.95;24.65;;;0.10;99.90;;;;;;5042245;28;20067;-66
2022/01/11 08:45:31;;;;;;;63.92;24.88;;;0.10;99.90;;;;;;5038774;28;20686;-66
2022/01/11 08:47:57;;;;;;;63.70;24.40;;;0.20;99.90;;;;;;5017542;28;20120;-65
2022/01/11 08:50:23;;;;;;;64.63;25.95;;;0.10;99.90;;;;;;5045193;28;20144;-66
2022/01/11 08:52:50;;;;;;;53.08;23.05;;;0.20;99.90;;;;;;5020359;28;20607;-68
2022/01/11 08:55:16;;;;;;;52.70;22.95;;;0.20;99.90;;;;;;5022159;28;20047;-66
2022/01/11 08:57:41;;;;;;;48.17;22.10;;;0.20;99.90;;;;;;5021022;28;20048;-68
2022/01/11 09:00:16;;;;;;;55.13;22.25;;;0.30;99.90;;;;;;5037950;28;20048;-67
2022/01/11 09:02:43;;;;;;;58.28;22.35;;;0.30;99.90;;;;;;5021040;28;20041;-66
2022/01/11 09:05:08;;;;;;;48.97;20.92;;;0.40;99.90;;;;;;5036029;28;20033;-67
2022/01/11 09:07:34;;;;;;;48.15;21.05;;;0.40;99.90;;;;;;5036295;28;20059;-68
2022/01/11 09:10:00;;;;;;;45.42;19.70;;;0.30;99.90;;;;;;5018913;28;20065;-66
2022/01/11 09:12:26;;;;;;;52.92;21.30;;;0.30;99.90;;;;;;5039846;28;20768;-67
2022/01/11 09:14:51;;;;;;;48.50;20.08;;;0.40;99.90;;;;;;5038511;28;20033;-67
2022/01/11 09:17:17;;;;;;;47.78;18.92;;;0.50;99.90;;;;;;5028095;28;20057;-68
2022/01/11 09:19:43;;;;;;;43.97;19.27;;;0.50;99.90;;;;;;5035558;28;20222;-68
2022/01/11 09:22:09;;;;;;;41.38;19.52;;;0.40;99.90;;;;;;5047314;28;20508;-67
2022/01/11 09:24:36;;;;;;;49.35;18.95;;;0.40;99.90;;;;;;5046210;28;20124;-68
2022/01/11 09:27:04;;;;;;;44.10;19.50;;;0.50;99.90;;;;;;5027907;28;20052;-68
2022/01/11 09:29:32;;;;;;;42.67;18.13;;;0.50;99.90;;;;;;5018748;28;20065;-67
2022/01/11 09:31:59;;;;;;;37.28;17.10;;;0.50;99.90;;;;;;5015855;28;20045;-68
2022/01/11 09:34:25;;;;;;;42.45;17.50;;;0.50;99.90;;;;;;5033432;28;20409;-67
2022/01/11 09:36:51;;;;;;;40.72;18.33;;;0.40;99.90;;;;;;5035909;28;20083;-67
2022/01/11 09:39:17;;;;;;;39.42;18.48;;;0.50;99.90;;;;;;5021750;28;20127;-67
2022/01/11 09:41:43;;;;;;;41.90;18.58;;;0.50;99.90;;;;;;5026772;28;20057;-67
2022/01/11 09:44:09;;;;;;;44.78;18.33;;;0.50;99.90;;;;;;5033275;28;20044;-68
2022/01/11 09:46:35;;;;;;;39.78;16.27;;;0.50;99.90;;;;;;5035854;28;20041;-67
2022/01/11 09:49:02;;;;;;;42.50;18.30;;;0.50;99.90;;;;;;5034181;28;20114;-68
2022/01/11 09:51:31;;;;;;;38.05;17.63;;;0.50;99.90;;;;;;5040192;28;20099;-67
2022/01/11 09:53:57;;;;;;;37.72;16.05;;;0.50;99.90;;;;;;5037966;28;20618;-67
2022/01/11 09:56:23;;;;;;;34.50;15.27;;;0.60;99.90;;;;;;5035432;28;20111;-68
2022/01/11 09:58:48;;;;;;;42.25;17.45;;;0.60;99.90;;;;;;5060372;28;20065;-68
2022/01/11 10:01:14;;;;;;;43.97;17.58;;;0.60;99.90;;;;;;5041761;28;20045;-67
2022/01/11 10:03:57;;;;;;;42.67;19.13;;;0.70;99.90;;;;;;5027364;28;20600;-68
2022/01/11 10:06:25;;;;;;;39.67;17.85;;;0.70;99.90;;;;;;5026887;28;20060;-68
2022/01/11 10:08:51;;;;;;;40.65;17.63;;;0.80;99.90;;;;;;5027629;28;20179;-68
2022/01/11 10:11:36;;;;;;;39.78;16.92;;;0.80;99.90;;;;;;5026755;28;20041;-69
2022/01/11 10:14:17;;;;;;;37.92;16.48;;;0.80;99.90;;;;;;5028231;28;20052;-68
2022/01/11 10:16:43;;;;;;;39.22;16.70;;;0.90;99.90;;;;;;5012355;28;20107;-69
2022/01/11 10:19:28;;;;;;;34.53;16.63;;;0.90;99.90;;;;;;5058890;28;20053;-69
2022/01/11 10:21:56;;;;;;;34.15;17.17;;;1.00;99.90;;;;;;5068151;28;20053;-68
2022/01/11 10:24:33;;;;;;;36.25;16.67;;;0.90;99.90;;;;;;5035893;28;20099;-68
2022/01/11 10:27:11;;;;;;;31.50;16.02;;;1.00;99.90;;;;;;5014688;28;20045;-68
2022/01/11 10:29:40;;;;;;;32.05;15.07;;;1.00;99.90;;;;;;5048620;28;20045;-68
2022/01/11 10:32:19;;;;;;;34.75;15.38;;;0.90;99.90;;;;;;5045781;28;20040;-69
2022/01/11 10:34:48;;;;;;;32.38;15.82;;;1.00;99.90;;;;;;5035203;28;20033;-68
2022/01/11 10:37:16;;;;;;;36.83;16.30;;;1.00;99.90;;;;;;5021775;28;20060;-68
2022/01/11 10:39:44;;;;;;;33.38;15.48;;;1.00;99.90;;;;;;5026085;28;20147;-72
2022/01/11 10:42:30;;;;;;;34.30;15.27;;;1.00;99.90;;;;;;5032182;28;20036;-69
2022/01/11 10:45:11;;;;;;;33.00;15.88;;;1.00;99.90;;;;;;5042810;28;20041;-67
2022/01/11 10:47:47;;;;;;;33.33;15.18;;;1.00;99.90;;;;;;5043951;28;20033;-68
2022/01/11 10:50:34;;;;;;;26.85;13.93;;;1.00;99.90;;;;;;5027811;28;20071;-67
2022/01/11 10:53:26;;;;;;;30.80;14.20;;;0.90;99.90;;;;;;5049209;28;20040;-67
2022/01/11 10:55:57;;;;;;;29.63;14.50;;;0.90;99.90;;;;;;5022525;28;20144;-68
2022/01/11 10:58:24;;;;;;;37.17;15.25;;;0.90;99.90;;;;;;5025362;28;20048;-68
2022/01/11 11:00:54;;;;;;;37.10;15.48;;;0.90;99.90;;;;;;5033655;28;20342;-67
2022/01/11 11:03:26;;;;;;;31.88;14.25;;;1.00;99.90;;;;;;5031271;28;20072;-67
2022/01/11 11:05:56;;;;;;;35.30;14.88;;;1.00;99.90;;;;;;5046652;28;20048;-67
2022/01/11 11:08:24;;;;;;;31.23;13.90;;;1.00;99.90;;;;;;5038229;28;20087;-67
2022/01/11 11:11:01;;;;;;;30.80;14.73;;;1.00;99.90;;;;;;5020823;28;20127;-67
2022/01/11 11:13:31;;;;;;;29.58;14.40;;;1.00;99.90;;;;;;5031901;28;20365;-68
2022/01/11 11:16:10;;;;;;;31.63;14.18;;;1.00;99.90;;;;;;5033483;28;20049;-67
2022/01/11 11:18:41;;;;;;;32.83;14.60;;;1.10;99.90;;;;;;5017266;28;20124;-67
2022/01/11 11:21:32;;;;;;;31.08;14.98;;;1.20;99.90;;;;;;5040436;28;20087;-67
2022/01/11 11:24:04;;;;;;;32.88;14.57;;;1.30;99.90;;;;;;5029259;28;20557;-67
2022/01/11 11:26:32;;;;;;;29.65;14.93;;;1.40;99.90;;;;;;5016349;28;20037;-66
2022/01/11 11:28:58;;;;;;;32.45;13.70;;;1.50;99.90;;;;;;5014054;28;20033;-67
2022/01/11 11:31:24;;;;;;;29.75;13.43;;;1.60;99.90;;;;;;5034346;28;20037;-68
2022/01/11 11:33:51;;;;;;;36.38;14.40;;;1.60;99.90;;;;;;5035682;28;20037;-68
2022/01/11 11:36:18;;;;;;;26.73;12.85;;;1.70;99.90;;;;;;5034952;28;20492;-67
2022/01/11 11:38:50;;;;;;;29.13;13.85;;;1.90;99.90;;;;;;5016402;28;20533;-67
2022/01/11 11:41:16;;;;;;;29.05;12.27;;;1.90;99.90;;;;;;5027491;28;20049;-67
2022/01/11 11:43:42;;;;;;;32.05;13.43;;;2.00;99.90;;;;;;5028126;28;20040;-67
2022/01/11 11:46:07;;;;;;;27.73;12.38;;;2.10;99.90;;;;;;5035647;28;20043;-68
2022/01/11 11:48:33;;;;;;;27.50;12.65;;;2.20;99.90;;;;;;5018038;28;20040;-68
2022/01/11 11:51:04;;;;;;;25.42;12.88;;;2.30;99.90;;;;;;5038808;28;20072;-68
2022/01/11 11:53:34;;;;;;;26.95;12.63;;;2.30;99.90;;;;;;5036712;28;20041;-68
2022/01/11 11:56:18;;;;;;;30.02;12.63;;;2.20;99.90;;;;;;5028791;28;20140;-68
2022/01/11 11:58:50;;;;;;;28.42;11.65;;;2.20;99.90;;;;;;5034444;28;20128;-69
2022/01/11 12:01:42;;;;;;;25.90;12.35;;;2.20;99.90;;;;;;5038218;28;20044;-68
2022/01/11 12:04:09;;;;;;;25.23;11.73;;;2.20;99.90;;;;;;5038094;28;20037;-69
2022/01/11 12:06:35;;;;;;;24.05;11.60;;;2.30;99.90;;;;;;5021128;28;20112;-69
2022/01/11 12:09:17;;;;;;;28.83;12.18;;;2.30;99.90;;;;;;5018237;28;20133;-68
2022/01/11 12:11:46;;;;;;;27.35;11.50;;;2.40;99.90;;;;;;5051849;28;20106;-68
2022/01/11 12:14:30;;;;;;;25.13;11.40;;;2.60;99.90;;;;;;5046932;28;20086;-69
2022/01/11 12:17:11;;;;;;;23.77;11.30;;;2.70;99.90;;;;;;5048319;28;20053;-67
2022/01/11 12:19:42;;;;;;;22.73;10.55;;;2.80;99.90;;;;;;5047358;28;20052;-68
2022/01/11 12:22:08;;;;;;;29.20;11.63;;;2.80;99.90;;;;;;5041560;28;20107;-68
2022/01/11 12:24:45;;;;;;;20.48;11.15;;;3.00;99.90;;;;;;5048076;28;20049;-68
2022/01/11 12:27:13;;;;;;;22.55;10.80;;;3.10;99.90;;;;;;5029023;28;20040;-68
2022/01/11 12:29:55;;;;;;;26.45;10.32;;;3.30;99.90;;;;;;5021104;28;20185;-69
2022/01/11 12:32:23;;;;;;;22.05;10.55;;;3.40;99.90;;;;;;5043272;28;20366;-69
2022/01/11 12:34:54;;;;;;;22.88;11.07;;;3.50;99.90;;;;;;5026995;28;20036;-70
2022/01/11 12:37:40;;;;;;;24.15;9.25;;;3.50;99.90;;;;;;5037793;28;20044;-69
2022/01/11 12:40:19;;;;;;;21.45;10.32;;;3.50;99.90;;;;;;5047478;28;20380;-68